Terminal Aerodrome Forecast
Issued by NWS

Home | Current Version | Previous Version | Text Only | Print | Product List | Glossary On
Versions: 1 2 3 4 5 6 7 8 9 10 11 12
642
FTUS44 KTSA 260807 AAA
TAFFYV
TAF AMD
KFYV 260807Z 2608/2706 11008KT P6SM -RA VCTS BKN035CB OVC090
     FM261000 VRB04KT P6SM BKN035
     FM261400 33011G20KT 4SM -SHRA BR BKN008 BKN012
     FM262200 32012KT P6SM VCSH BKN012
     FM270300 30011KT P6SM BKN025=

USA.gov is the U.S. government's official web portal to all federal, state and local government web resources and services.